createdAt,value
2022-12-14T00:00:40.750Z,-3.2
2022-12-14T00:06:10.277Z,-3.2
2022-12-14T00:11:51.970Z,-3.1
2022-12-14T00:17:34.073Z,-3.1
2022-12-14T00:22:49.917Z,-3.1
2022-12-14T00:28:15.770Z,-3.1
2022-12-14T00:33:50.801Z,-3.1
2022-12-14T00:39:27.958Z,-3.1
2022-12-14T00:45:03.994Z,-3.1
2022-12-14T00:50:23.134Z,-3.1
2022-12-14T00:55:48.887Z,-3.1
2022-12-14T01:01:41.785Z,-3.1
2022-12-14T01:06:46.702Z,-3.1
2022-12-14T01:12:29.385Z,-3.1
2022-12-14T01:18:07.384Z,-3
2022-12-14T01:23:20.637Z,-3
2022-12-14T01:29:09.088Z,-3
2022-12-14T01:34:31.649Z,-3
2022-12-14T01:39:53.041Z,-3
2022-12-14T06:06:36.265Z,-2.9
2022-12-14T06:11:19.186Z,-2.5
2022-12-14T06:22:21.163Z,-2.5
2022-12-14T06:27:58.026Z,-2.4
2022-12-14T06:33:23.933Z,-2.4
2022-12-14T06:38:56.821Z,-2.3
2022-12-14T06:44:21.720Z,-2.3
2022-12-14T06:49:59.068Z,-2.2
2022-12-14T06:55:12.167Z,-2.2
2022-12-14T07:00:52.265Z,-2.2
2022-12-14T07:06:39.078Z,-2.3
2022-12-14T07:12:03.070Z,-2.1
2022-12-14T07:17:29.491Z,-2
2022-12-14T07:22:52.776Z,-2.1
2022-12-14T07:28:33.154Z,-1.9
2022-12-14T07:34:08.946Z,-2
2022-12-14T07:39:44.285Z,-1.8
2022-12-14T07:44:58.549Z,-1.8
2022-12-14T07:50:40.404Z,-1.8
2022-12-14T07:56:06.951Z,-1.7
2022-12-14T08:01:54.575Z,-1.7
2022-12-14T08:07:25.091Z,-1.7
2022-12-14T08:12:51.834Z,-1.6
2022-12-14T08:18:09.564Z,-1.6
2022-12-14T08:23:33.397Z,-1.5
2022-12-14T08:29:09.166Z,-1.4
2022-12-14T08:34:57.148Z,-1.4
2022-12-14T08:40:08.548Z,-1.4
2022-12-14T08:45:56.701Z,-1.4
2022-12-14T08:51:13.900Z,-1.3
2022-12-14T08:56:54.597Z,-1.1
2022-12-14T09:02:17.769Z,-1.1
2022-12-14T09:07:45.327Z,-1.2
2022-12-14T09:13:32.176Z,-1.2
2022-12-14T09:18:54.893Z,-1
2022-12-14T09:24:36.489Z,-0.6
2022-12-14T09:30:02.273Z,-0.4
2022-12-14T09:35:40.792Z,-0.5
2022-12-14T09:40:54.618Z,-0.4
2022-12-14T09:46:47.502Z,-0.4
2022-12-14T09:52:02.439Z,-0.3
2022-12-14T09:57:39.190Z,-0.3
2022-12-14T10:03:01.497Z,-0.3
2022-12-14T10:08:29.888Z,-0.2
2022-12-14T10:14:11.106Z,-0.2
2022-12-14T10:19:57.431Z,-0.1
2022-12-14T10:25:28.485Z,-0.1
2022-12-14T10:30:39.193Z,0
2022-12-14T10:36:23.094Z,-0.1
2022-12-14T10:41:49.500Z,0
2022-12-14T10:47:08.791Z,0
2022-12-14T10:52:55.853Z,0.2
2022-12-14T10:58:36.829Z,0.1
2022-12-14T11:03:58.233Z,0
2022-12-14T11:09:14.305Z,0
2022-12-14T11:15:00.093Z,-0.1
2022-12-14T11:20:33.802Z,-0.1
2022-12-14T11:26:04.613Z,-0.1
2022-12-14T11:31:31.792Z,-0.1
2022-12-14T11:37:16.048Z,0
2022-12-14T11:42:25.697Z,0
2022-12-14T11:48:04.360Z,0
2022-12-14T11:53:41.012Z,0
2022-12-14T11:59:13.375Z,0
2022-12-14T12:04:28.820Z,0.1
2022-12-14T12:10:21.052Z,0.1
2022-12-14T12:15:56.507Z,0.2
2022-12-14T12:21:16.682Z,0.2
2022-12-14T12:26:42.232Z,0.3
2022-12-14T12:32:28.771Z,0.2
2022-12-14T12:37:59.406Z,0.2
2022-12-14T12:43:34.083Z,0.3
2022-12-14T12:48:41.640Z,0.3
2022-12-14T12:54:35.664Z,0.3
2022-12-14T12:59:50.956Z,0.4
2022-12-14T13:16:27.163Z,0.4
2022-12-14T13:21:49.745Z,0.5
2022-12-14T13:27:39.606Z,0.5
2022-12-14T13:32:59.083Z,0.7
2022-12-14T13:38:49.650Z,0.7
2022-12-14T13:44:13.880Z,0.6
2022-12-14T13:49:38.152Z,0.6
2022-12-14T13:55:24.590Z,0.8
2022-12-14T14:00:46.800Z,0.7
2022-12-14T14:06:16.692Z,0.6
2022-12-14T14:11:45.633Z,0.7
2022-12-14T14:17:02.474Z,0.8
2022-12-14T14:22:53.745Z,0.9
2022-12-14T14:28:20.824Z,1.2
2022-12-14T14:34:01.035Z,1.4
2022-12-14T14:44:53.222Z,1.4
2022-12-14T14:50:29.642Z,1.4
2022-12-14T14:55:54.873Z,1.4
2022-12-14T15:01:25.980Z,1.4
2022-12-14T15:07:00.757Z,1.5
2022-12-14T15:12:32.644Z,1.9
2022-12-14T15:17:56.730Z,1.7
2022-12-14T15:23:34.768Z,1.3
2022-12-14T15:29:13.317Z,1.4
2022-12-14T15:34:51.400Z,1.8
2022-12-14T15:40:22.433Z,1.8
2022-12-14T15:45:41.435Z,1.7
2022-12-14T15:51:01.466Z,1.9
2022-12-14T15:56:35.904Z,2
2022-12-14T16:02:07.683Z,1.7
2022-12-14T16:07:42.435Z,2
2022-12-14T16:13:15.776Z,2
2022-12-14T16:19:20.645Z,1.9
2022-12-14T16:24:30.028Z,1.3
2022-12-14T16:29:45.065Z,1.2
2022-12-14T16:35:26.652Z,1.4
2022-12-14T16:40:56.942Z,1.6
2022-12-14T16:46:35.361Z,2.3
2022-12-14T16:52:08.713Z,2.4
2022-12-14T16:57:28.449Z,2.6
2022-12-14T17:03:02.031Z,3.1
2022-12-14T17:08:46.190Z,3.5
2022-12-14T17:14:16.896Z,3.5
2022-12-14T17:19:43.882Z,2.2
2022-12-14T17:25:21.541Z,2.6
2022-12-14T17:30:49.214Z,3.6
2022-12-14T17:36:10.104Z,4.4
2022-12-14T17:41:33.723Z,3.7
2022-12-14T17:47:27.929Z,4.3
2022-12-14T17:52:36.442Z,3.6
2022-12-14T17:58:20.836Z,2.3
2022-12-14T18:03:53.184Z,2.3
2022-12-14T18:09:33.278Z,2.3
2022-12-14T18:14:40.566Z,2.4
2022-12-14T18:20:19.203Z,2.8
2022-12-14T18:25:47.820Z,4.2
2022-12-14T18:31:32.268Z,4.5
2022-12-14T18:37:02.176Z,4.2
2022-12-14T18:42:20.713Z,4.5
2022-12-14T18:48:01.520Z,4.1
2022-12-14T18:53:29.841Z,4.4
2022-12-14T18:58:59.711Z,5.1
2022-12-14T19:04:31.718Z,4.7
2022-12-14T19:10:05.820Z,5.4
2022-12-14T19:15:27.794Z,5.8
2022-12-14T19:21:22.318Z,5.9
2022-12-14T19:26:40.160Z,5.8
2022-12-14T19:32:09.647Z,5.7
2022-12-14T19:37:44.459Z,5.2
2022-12-14T19:43:20.986Z,4.5
2022-12-14T19:49:01.716Z,3.9
2022-12-14T19:54:16.340Z,4.2
2022-12-14T19:59:49.604Z,4.3
2022-12-14T20:05:24.304Z,5.5
2022-12-14T20:11:05.601Z,5.5
2022-12-14T20:16:45.696Z,5.9
2022-12-14T20:22:08.258Z,5.3
2022-12-14T20:27:27.731Z,5.3
2022-12-14T20:33:08.056Z,5.6
2022-12-14T20:38:38.797Z,6
2022-12-14T20:44:25.058Z,6
2022-12-14T20:49:43.418Z,6
2022-12-14T20:55:03.098Z,6
2022-12-14T21:01:00.329Z,5.8
2022-12-14T21:06:32.907Z,5.7
2022-12-14T21:11:42.662Z,5.7
2022-12-14T21:17:15.635Z,5.9
2022-12-14T21:23:01.445Z,6.2
2022-12-14T21:28:40.003Z,6.3
2022-12-14T21:34:08.309Z,6.4
2022-12-14T21:39:31.877Z,6.4
2022-12-14T21:45:04.428Z,6.4
2022-12-14T21:50:41.885Z,6.5
2022-12-14T21:56:28.233Z,6.6
2022-12-14T22:01:44.540Z,6.4
2022-12-14T22:07:07.736Z,6.6
2022-12-14T22:13:04.375Z,6.6
2022-12-14T22:18:24.837Z,6.7
2022-12-14T22:24:09.076Z,6.6
2022-12-14T22:29:33.927Z,6.6
2022-12-14T22:35:17.173Z,6.6
2022-12-14T22:40:31.007Z,6.6
2022-12-14T22:46:04.561Z,6.6
2022-12-14T22:51:36.536Z,6.7
2022-12-14T22:57:08.400Z,6.6
2022-12-14T23:02:48.042Z,6.8
2022-12-14T23:08:23.818Z,6.7
2022-12-14T23:13:43.895Z,6.7
2022-12-14T23:19:29.254Z,6.7
2022-12-14T23:24:52.855Z,6.6
2022-12-14T23:30:24.670Z,6.5
2022-12-14T23:35:51.558Z,6.5
2022-12-14T23:41:47.484Z,6.5
2022-12-14T23:46:55.682Z,6.7
2022-12-14T23:52:25.918Z,6.4
2022-12-14T23:58:25.473Z,6.4
